createdAt,value
2023-12-12T00:01:44.902Z,0.80
2023-12-12T00:04:13.481Z,0.80
2023-12-12T00:06:41.921Z,0.80
2023-12-12T00:09:11.679Z,0.80
2023-12-12T00:11:40.047Z,0.80
2023-12-12T00:14:08.935Z,0.80
2023-12-12T00:16:37.359Z,0.80
2023-12-12T00:19:05.928Z,0.80
2023-12-12T00:21:34.483Z,0.80
2023-12-12T00:24:03.474Z,0.80
2023-12-12T00:26:33.273Z,0.87
2023-12-12T00:29:01.914Z,0.90
2023-12-12T00:31:30.346Z,0.80
2023-12-12T00:33:59.007Z,1.10
2023-12-12T00:36:27.445Z,0.90
2023-12-12T00:38:55.752Z,0.80
2023-12-12T00:41:34.901Z,0.90
2023-12-12T00:44:03.507Z,0.90
2023-12-12T00:46:32.027Z,0.90
2023-12-12T00:49:00.638Z,0.90
2023-12-12T00:51:29.115Z,0.90
2023-12-12T00:53:57.579Z,0.97
2023-12-12T00:56:26.014Z,0.80
2023-12-12T00:58:55.824Z,0.90
2023-12-12T01:01:24.310Z,0.90
2023-12-12T01:03:53.181Z,1.00
2023-12-12T01:06:28.929Z,0.90
2023-12-12T01:08:58.302Z,0.80
2023-12-12T01:11:27.240Z,0.90
2023-12-12T01:13:57.027Z,1.07
2023-12-12T01:16:27.371Z,1.00
2023-12-12T01:18:56.629Z,0.90
2023-12-12T01:21:25.119Z,0.93
2023-12-12T01:23:55.318Z,0.80
2023-12-12T01:26:25.600Z,1.10
2023-12-12T01:28:56.308Z,1.07
2023-12-12T01:31:24.722Z,0.90
2023-12-12T01:33:53.473Z,1.20
2023-12-12T01:36:21.937Z,0.80
2023-12-12T01:38:50.429Z,0.80
2023-12-12T01:41:19.608Z,1.00
2023-12-12T01:43:47.975Z,0.90
2023-12-12T01:46:20.604Z,1.00
2023-12-12T01:48:50.867Z,1.00
2023-12-12T01:51:20.038Z,0.80
2023-12-12T01:53:52.529Z,0.87
2023-12-12T01:56:21.727Z,0.90
2023-12-12T01:58:55.247Z,0.90
2023-12-12T02:01:27.979Z,1.00
2023-12-12T02:03:58.708Z,1.00
2023-12-12T02:06:29.374Z,1.37
2023-12-12T02:08:58.079Z,1.20
2023-12-12T02:11:26.570Z,1.20
2023-12-12T02:13:54.931Z,0.90
2023-12-12T02:16:24.701Z,1.30
2023-12-12T02:18:53.198Z,0.80
2023-12-12T02:21:23.590Z,1.00
2023-12-12T02:23:52.402Z,0.90
2023-12-12T02:26:20.973Z,0.90
2023-12-12T02:28:49.487Z,1.00
2023-12-12T02:31:19.362Z,1.10
2023-12-12T02:33:47.747Z,1.07
2023-12-12T02:36:16.774Z,1.37
2023-12-12T02:38:46.555Z,2.07
2023-12-12T02:41:15.586Z,0.90
2023-12-12T02:43:43.994Z,1.03
2023-12-12T02:46:12.378Z,1.00
2023-12-12T02:48:40.850Z,1.40
2023-12-12T02:51:09.232Z,1.00
2023-12-12T02:53:37.688Z,1.00
2023-12-12T02:56:08.431Z,1.00
2023-12-12T02:58:36.810Z,1.00
2023-12-12T03:01:05.907Z,1.93
2023-12-12T03:03:34.384Z,1.40
2023-12-12T03:06:02.754Z,0.90
2023-12-12T03:08:31.144Z,1.33
2023-12-12T03:10:59.509Z,1.37
2023-12-12T03:13:29.311Z,1.60
2023-12-12T03:15:57.742Z,1.70
2023-12-12T03:18:26.492Z,1.23
2023-12-12T03:20:54.924Z,1.53
2023-12-12T03:23:23.497Z,1.43
2023-12-12T03:25:51.934Z,1.70
2023-12-12T03:28:20.349Z,1.10
2023-12-12T03:30:50.070Z,1.30
2023-12-12T03:33:18.624Z,2.00
2023-12-12T03:35:47.020Z,2.87
2023-12-12T03:38:15.439Z,1.63
2023-12-12T03:40:43.890Z,0.80
2023-12-12T03:43:12.247Z,1.80
2023-12-12T03:45:40.671Z,1.40
2023-12-12T03:48:10.805Z,1.07
2023-12-12T03:50:39.320Z,1.60
2023-12-12T03:53:08.132Z,0.90
2023-12-12T03:55:37.141Z,1.03
2023-12-12T03:58:06.333Z,1.30
2023-12-12T04:00:35.161Z,2.00
2023-12-12T04:03:03.553Z,1.43
2023-12-12T04:05:33.304Z,1.37
2023-12-12T04:08:01.649Z,0.80
2023-12-12T04:10:30.086Z,2.23
2023-12-12T04:12:58.562Z,1.50
2023-12-12T04:15:26.961Z,3.07
2023-12-12T04:17:55.504Z,1.40
2023-12-12T04:20:23.865Z,0.90
2023-12-12T04:22:53.589Z,1.50
2023-12-12T04:25:22.052Z,0.80
2023-12-12T04:27:50.523Z,1.07
2023-12-12T04:30:19.146Z,1.00
2023-12-12T04:32:47.825Z,0.80
2023-12-12T04:35:17.471Z,0.80
2023-12-12T04:37:45.891Z,0.80
2023-12-12T04:40:16.028Z,0.80
2023-12-12T04:42:44.519Z,0.80
2023-12-12T04:45:13.001Z,0.87
2023-12-12T04:47:41.407Z,0.80
2023-12-12T04:50:11.601Z,0.80
2023-12-12T04:52:39.968Z,0.80
2023-12-12T04:55:09.814Z,0.77
2023-12-12T04:57:40.627Z,0.80
2023-12-12T05:00:14.800Z,0.80
2023-12-12T05:02:43.626Z,0.80
2023-12-12T05:05:12.710Z,0.80
2023-12-12T05:07:41.287Z,0.80
2023-12-12T05:10:10.541Z,0.80
2023-12-12T05:12:40.548Z,0.70
2023-12-12T05:15:10.690Z,0.90
2023-12-12T05:17:40.680Z,0.80
2023-12-12T05:20:12.788Z,0.80
2023-12-12T05:22:41.418Z,0.80
2023-12-12T05:25:10.049Z,0.80
2023-12-12T05:27:39.846Z,0.70
2023-12-12T05:30:10.055Z,0.80
2023-12-12T05:32:38.523Z,0.80
2023-12-12T05:35:08.340Z,0.70
2023-12-12T05:37:37.669Z,0.70
2023-12-12T05:40:07.518Z,0.70
2023-12-12T05:42:35.895Z,0.80
2023-12-12T05:45:06.774Z,0.70
2023-12-12T05:47:35.518Z,0.80
2023-12-12T05:50:05.201Z,0.70
2023-12-12T05:52:33.706Z,0.70
2023-12-12T05:55:03.572Z,0.80
2023-12-12T05:57:32.040Z,0.70
2023-12-12T06:00:00.597Z,0.80
2023-12-12T06:02:30.481Z,0.80
2023-12-12T06:04:58.877Z,0.87
2023-12-12T06:07:27.524Z,0.80
2023-12-12T06:09:55.973Z,0.80
2023-12-12T06:12:25.770Z,0.70
2023-12-12T06:14:54.323Z,0.70
2023-12-12T06:17:22.651Z,0.70
2023-12-12T06:19:55.279Z,0.80
2023-12-12T06:22:23.582Z,0.70
2023-12-12T06:24:52.672Z,0.80
2023-12-12T06:27:23.828Z,0.80
2023-12-12T06:29:53.632Z,0.80
2023-12-12T06:32:23.599Z,0.80
2023-12-12T06:34:53.474Z,0.70
2023-12-12T06:37:22.074Z,0.70
2023-12-12T06:39:50.370Z,0.70
2023-12-12T06:42:18.763Z,0.80
2023-12-12T06:44:48.025Z,0.80
2023-12-12T06:47:16.460Z,0.80
2023-12-12T06:49:46.997Z,0.80
2023-12-12T06:52:17.651Z,0.80
2023-12-12T06:54:46.255Z,0.80
2023-12-12T06:57:15.050Z,0.80
2023-12-12T06:59:43.352Z,0.80
2023-12-12T07:02:11.761Z,0.80
2023-12-12T07:04:40.150Z,0.73
2023-12-12T07:07:10.562Z,0.80
2023-12-12T07:09:40.285Z,0.70
2023-12-12T07:12:09.120Z,0.70
2023-12-12T07:14:37.465Z,0.80
2023-12-12T07:17:16.970Z,0.80
2023-12-12T07:19:58.266Z,0.80
2023-12-12T07:22:26.632Z,0.70
2023-12-12T07:24:56.391Z,0.80
2023-12-12T07:27:24.822Z,0.60
2023-12-12T07:29:53.075Z,0.80
2023-12-12T07:32:21.396Z,0.70
2023-12-12T07:34:49.957Z,0.80
2023-12-12T07:37:18.770Z,0.70
2023-12-12T07:39:47.371Z,0.77
2023-12-12T07:42:17.092Z,0.80
2023-12-12T07:44:45.389Z,0.80
2023-12-12T07:47:13.820Z,0.80
2023-12-12T07:49:42.473Z,0.73
2023-12-12T07:52:10.957Z,0.80
2023-12-12T07:54:39.417Z,0.80
2023-12-12T07:57:07.727Z,0.80
2023-12-12T07:59:37.472Z,0.80
2023-12-12T08:02:06.252Z,0.73
2023-12-12T08:04:34.658Z,0.80
2023-12-12T08:07:03.112Z,0.80
2023-12-12T08:09:31.660Z,0.80
2023-12-12T08:11:59.903Z,0.70
2023-12-12T08:14:28.278Z,0.80
2023-12-12T08:16:58.663Z,0.80
2023-12-12T08:19:27.206Z,0.80
2023-12-12T08:21:55.595Z,0.70
2023-12-12T08:24:23.959Z,0.80
2023-12-12T08:26:52.296Z,0.90
2023-12-12T08:29:20.626Z,0.80
2023-12-12T08:31:48.963Z,0.80
2023-12-12T08:34:18.741Z,0.80
2023-12-12T08:36:47.114Z,0.87
2023-12-12T08:39:15.524Z,0.80
2023-12-12T08:41:43.868Z,0.70
2023-12-12T08:44:12.564Z,0.80
2023-12-12T08:46:42.541Z,0.80
2023-12-12T08:49:11.148Z,0.80
2023-12-12T08:51:41.129Z,0.70
2023-12-12T08:54:09.429Z,0.80
2023-12-12T08:56:38.113Z,0.70
2023-12-12T08:59:06.624Z,0.70
2023-12-12T09:01:35.088Z,0.70
2023-12-12T09:04:03.799Z,0.70
2023-12-12T09:06:32.265Z,0.73
2023-12-12T09:09:01.977Z,0.70
2023-12-12T09:11:30.325Z,0.70
2023-12-12T09:13:58.783Z,0.80
2023-12-12T09:16:27.296Z,0.80
2023-12-12T09:18:55.945Z,0.70
2023-12-12T09:21:24.493Z,0.70
2023-12-12T09:23:52.861Z,0.80
2023-12-12T09:26:22.591Z,0.70
2023-12-12T09:28:51.172Z,0.80
2023-12-12T09:31:28.024Z,0.80
2023-12-12T09:33:57.212Z,0.70
2023-12-12T09:36:26.000Z,0.80
2023-12-12T09:38:54.282Z,0.80
2023-12-12T09:41:25.804Z,0.70
2023-12-12T09:43:54.194Z,0.70
2023-12-12T09:46:22.850Z,0.80
2023-12-12T09:48:53.291Z,0.70
2023-12-12T09:51:23.743Z,0.70
2023-12-12T09:53:53.840Z,0.80
2023-12-12T09:56:25.872Z,0.70
2023-12-12T09:58:54.262Z,0.80
2023-12-12T10:01:25.301Z,0.70
2023-12-12T10:03:56.037Z,0.80
2023-12-12T10:06:31.420Z,0.70
2023-12-12T10:09:01.537Z,0.70
2023-12-12T10:11:31.282Z,0.73
2023-12-12T10:14:01.847Z,0.80
2023-12-12T10:16:33.415Z,0.80
2023-12-12T10:19:03.520Z,0.80
2023-12-12T10:21:32.863Z,0.80
2023-12-12T10:24:01.384Z,0.70
2023-12-12T10:26:34.963Z,0.80
2023-12-12T10:29:04.008Z,0.70
2023-12-12T10:31:32.532Z,0.80
2023-12-12T10:34:01.040Z,0.80
2023-12-12T10:36:30.051Z,0.70
2023-12-12T10:39:13.925Z,0.80
2023-12-12T10:41:53.497Z,0.80
2023-12-12T10:44:27.564Z,0.70
2023-12-12T10:46:57.037Z,0.80
2023-12-12T10:49:32.268Z,0.80
2023-12-12T10:52:08.569Z,0.80
2023-12-12T10:54:40.746Z,0.80
2023-12-12T10:57:12.552Z,0.70
2023-12-12T10:59:58.919Z,0.70
2023-12-12T11:02:33.494Z,0.70
2023-12-12T11:05:04.154Z,0.70
2023-12-12T11:07:35.217Z,0.80
2023-12-12T11:10:08.449Z,0.80
2023-12-12T11:12:43.528Z,0.80
2023-12-12T11:15:13.828Z,0.80
2023-12-12T11:17:43.219Z,0.80
2023-12-12T11:20:17.462Z,0.80
2023-12-12T11:22:50.857Z,0.80
2023-12-12T11:25:21.707Z,0.80
2023-12-12T11:27:54.035Z,0.80
2023-12-12T11:30:31.920Z,0.80
2023-12-12T11:33:01.635Z,0.80
2023-12-12T11:35:33.633Z,0.80
2023-12-12T11:38:06.001Z,0.70
2023-12-12T11:40:36.210Z,0.77
2023-12-12T11:43:22.528Z,0.80
2023-12-12T11:45:51.881Z,0.70
2023-12-12T11:48:20.561Z,0.77
2023-12-12T11:50:49.227Z,0.80
2023-12-12T11:53:42.508Z,0.80
2023-12-12T11:56:11.081Z,0.80
2023-12-12T11:58:41.201Z,0.80
2023-12-12T12:01:09.888Z,0.70
2023-12-12T12:03:38.451Z,0.80
2023-12-12T12:06:08.018Z,0.73
2023-12-12T12:08:36.980Z,0.80
2023-12-12T12:11:06.108Z,0.70
2023-12-12T12:13:43.692Z,0.80
2023-12-12T12:16:13.348Z,0.80
2023-12-12T12:18:41.885Z,0.70
2023-12-12T12:21:10.687Z,0.80
2023-12-12T12:23:40.522Z,0.80
2023-12-12T12:26:09.840Z,0.70
2023-12-12T12:28:38.577Z,0.80
2023-12-12T12:31:08.808Z,0.80
2023-12-12T12:33:39.720Z,0.70
2023-12-12T12:36:08.968Z,0.70
2023-12-12T12:38:37.635Z,0.70
2023-12-12T12:41:24.716Z,0.80
2023-12-12T12:43:56.315Z,0.80
2023-12-12T12:46:27.757Z,0.80
2023-12-12T12:48:57.242Z,0.80
2023-12-12T12:51:26.704Z,0.80
2023-12-12T12:53:55.302Z,0.80
2023-12-12T12:56:24.349Z,0.70
2023-12-12T12:58:53.001Z,0.80
2023-12-12T13:01:23.102Z,0.70
2023-12-12T13:03:52.898Z,0.70
2023-12-12T13:06:21.512Z,0.80
2023-12-12T13:08:49.890Z,0.70
2023-12-12T13:11:20.066Z,0.80
2023-12-12T13:13:50.770Z,0.80
2023-12-12T13:16:20.280Z,0.80
2023-12-12T13:18:48.822Z,0.80
2023-12-12T13:21:18.723Z,0.70
2023-12-12T13:23:47.093Z,0.80
2023-12-12T13:26:15.538Z,0.80
2023-12-12T13:28:44.286Z,0.80
2023-12-12T13:31:13.839Z,0.80
2023-12-12T13:33:42.343Z,0.80
2023-12-12T13:36:11.013Z,0.80
2023-12-12T13:38:40.998Z,0.80
2023-12-12T13:41:09.588Z,0.80
2023-12-12T13:43:38.093Z,0.80
2023-12-12T13:46:08.267Z,0.80
2023-12-12T13:48:37.668Z,0.80
2023-12-12T13:51:08.637Z,0.80
2023-12-12T13:53:39.732Z,0.70
2023-12-12T13:56:09.949Z,0.70
2023-12-12T13:58:38.542Z,0.80
2023-12-12T14:01:07.851Z,0.77
2023-12-12T14:03:36.410Z,0.80
2023-12-12T14:06:05.275Z,0.70
2023-12-12T14:08:33.820Z,0.70
2023-12-12T14:11:03.555Z,0.70
2023-12-12T14:13:32.036Z,0.80
2023-12-12T14:16:02.052Z,0.80
2023-12-12T14:18:30.571Z,0.80
2023-12-12T14:20:58.929Z,0.80
2023-12-12T14:23:27.470Z,0.80
2023-12-12T14:25:55.948Z,0.70
2023-12-12T14:28:25.710Z,0.80
2023-12-12T14:30:54.251Z,0.80
2023-12-12T14:33:23.143Z,0.80
2023-12-12T14:35:51.626Z,0.77
2023-12-12T14:38:20.042Z,0.80
2023-12-12T14:40:49.272Z,0.70
2023-12-12T14:43:17.735Z,0.80
2023-12-12T14:45:47.421Z,0.70
2023-12-12T14:48:15.763Z,0.70
2023-12-12T14:50:44.484Z,0.80
2023-12-12T14:53:12.979Z,0.70
2023-12-12T14:55:41.746Z,0.60
2023-12-12T14:58:10.449Z,0.80
2023-12-12T15:00:39.476Z,0.70
2023-12-12T15:03:10.018Z,0.80
2023-12-12T15:05:38.526Z,0.80
2023-12-12T15:08:07.193Z,0.80
2023-12-12T15:10:35.753Z,0.80
2023-12-12T15:13:05.145Z,0.80
2023-12-12T15:15:33.539Z,0.80
2023-12-12T15:18:02.054Z,0.80
2023-12-12T15:20:32.706Z,0.80
2023-12-12T15:23:01.972Z,0.80
2023-12-12T15:25:36.245Z,0.80
2023-12-12T15:28:24.384Z,0.80
2023-12-12T15:30:56.486Z,0.80
2023-12-12T15:33:25.594Z,0.80
2023-12-12T15:35:55.689Z,0.70
2023-12-12T15:38:24.216Z,0.80
2023-12-12T15:40:52.659Z,0.80
2023-12-12T15:43:21.214Z,0.80
2023-12-12T15:45:49.613Z,0.80
2023-12-12T15:48:18.197Z,0.77
2023-12-12T15:50:46.728Z,0.80
2023-12-12T15:53:16.456Z,0.80
2023-12-12T15:55:46.103Z,0.90
2023-12-12T15:58:14.536Z,0.80
2023-12-12T16:00:43.291Z,0.80
2023-12-12T16:03:11.729Z,0.80
2023-12-12T16:05:41.041Z,0.80
2023-12-12T16:08:13.264Z,0.80
2023-12-12T16:10:43.311Z,0.80
2023-12-12T16:13:11.588Z,0.80
2023-12-12T16:15:40.244Z,0.80
2023-12-12T16:18:09.117Z,0.70
2023-12-12T16:20:37.514Z,0.80
2023-12-12T16:23:05.787Z,0.80
2023-12-12T16:25:34.222Z,0.80
2023-12-12T16:28:04.498Z,0.80
2023-12-12T16:30:33.009Z,0.80
2023-12-12T16:33:04.616Z,0.80
2023-12-12T16:35:33.317Z,0.80
2023-12-12T16:38:01.801Z,0.90
2023-12-12T16:40:30.662Z,0.80
2023-12-12T16:42:59.079Z,0.80
2023-12-12T16:45:28.752Z,0.80
2023-12-12T16:47:57.673Z,0.80
2023-12-12T16:50:26.258Z,0.80
2023-12-12T16:52:54.691Z,0.90
2023-12-12T16:55:23.334Z,0.80
2023-12-12T16:57:52.129Z,0.90
2023-12-12T17:00:21.235Z,0.80
2023-12-12T17:02:51.233Z,0.80
2023-12-12T17:05:20.241Z,0.80
2023-12-12T17:07:50.505Z,0.80
2023-12-12T17:10:19.756Z,0.80
2023-12-12T17:12:51.160Z,0.80
2023-12-12T17:15:20.031Z,0.80
2023-12-12T17:17:49.889Z,0.80
2023-12-12T17:20:18.791Z,0.80
2023-12-12T17:22:47.400Z,0.90
2023-12-12T17:25:17.945Z,0.70
2023-12-12T17:27:46.380Z,0.80
2023-12-12T17:30:16.008Z,0.80
2023-12-12T17:32:46.537Z,0.80
2023-12-12T17:35:16.779Z,0.80
2023-12-12T17:37:45.408Z,0.77
2023-12-12T17:40:14.673Z,0.80
2023-12-12T17:42:44.536Z,0.80
2023-12-12T17:45:13.195Z,0.80
2023-12-12T17:47:42.899Z,0.80
2023-12-12T17:50:17.185Z,0.80
2023-12-12T17:52:46.121Z,0.80
2023-12-12T17:55:15.949Z,0.80
2023-12-12T17:57:45.028Z,0.80
2023-12-12T18:00:14.779Z,0.80
2023-12-12T18:02:44.038Z,0.80
2023-12-12T18:05:13.835Z,0.80
2023-12-12T18:07:44.143Z,0.80
2023-12-12T18:10:13.670Z,0.80
2023-12-12T18:12:42.246Z,0.80
2023-12-12T18:15:12.329Z,0.80
2023-12-12T18:17:41.633Z,0.80
2023-12-12T18:20:12.689Z,0.80
2023-12-12T18:22:41.266Z,0.80
2023-12-12T18:25:11.481Z,0.80
2023-12-12T18:27:40.110Z,0.80
2023-12-12T18:30:11.104Z,0.80
2023-12-12T18:32:40.114Z,0.80
2023-12-12T18:35:09.701Z,0.90
2023-12-12T18:37:39.301Z,0.80
2023-12-12T18:40:13.521Z,0.80
2023-12-12T18:42:42.172Z,0.80
2023-12-12T18:45:12.866Z,0.80
2023-12-12T18:47:41.359Z,0.77
2023-12-12T18:50:11.159Z,0.80
2023-12-12T18:52:40.473Z,0.80
2023-12-12T18:55:11.288Z,0.80
2023-12-12T18:57:39.967Z,0.70
2023-12-12T19:00:12.208Z,0.80
2023-12-12T19:02:42.766Z,0.70
2023-12-12T19:05:13.048Z,0.80
2023-12-12T19:07:43.290Z,0.80
2023-12-12T19:10:15.282Z,0.80
2023-12-12T19:12:47.822Z,0.80
2023-12-12T19:15:21.780Z,0.80
2023-12-12T19:17:50.531Z,0.83
2023-12-12T19:20:19.458Z,0.80
2023-12-12T19:22:48.527Z,0.80
2023-12-12T19:25:18.667Z,0.80
2023-12-12T19:27:48.167Z,0.80
2023-12-12T19:30:17.966Z,0.70
2023-12-12T19:32:46.533Z,0.80
2023-12-12T19:35:15.397Z,0.73
2023-12-12T19:37:43.855Z,0.80
2023-12-12T19:40:13.254Z,0.70
2023-12-12T19:42:45.589Z,0.80
2023-12-12T19:45:15.021Z,0.70
2023-12-12T19:47:43.795Z,0.80
2023-12-12T19:50:16.422Z,0.80
2023-12-12T19:52:47.984Z,0.80
2023-12-12T19:55:17.328Z,0.77
2023-12-12T19:57:47.316Z,0.80
2023-12-12T20:00:16.437Z,0.80
2023-12-12T20:02:44.807Z,0.73
2023-12-12T20:05:13.319Z,0.80
2023-12-12T20:07:41.846Z,0.80
2023-12-12T20:10:14.192Z,0.80
2023-12-12T20:12:46.423Z,0.80
2023-12-12T20:15:19.112Z,0.80
2023-12-12T20:17:49.427Z,0.90
2023-12-12T20:20:18.222Z,0.87
2023-12-12T20:22:49.377Z,0.77
2023-12-12T20:25:20.497Z,0.80
2023-12-12T20:27:49.021Z,0.80
2023-12-12T20:30:18.992Z,0.90
2023-12-12T20:32:47.581Z,0.80
2023-12-12T20:35:16.107Z,0.90
2023-12-12T20:37:44.669Z,0.80
2023-12-12T20:40:13.522Z,0.80
2023-12-12T20:42:41.997Z,0.80
2023-12-12T20:45:11.863Z,0.80
2023-12-12T20:47:41.685Z,0.80
2023-12-12T20:50:12.185Z,0.80
2023-12-12T20:52:40.938Z,0.80
2023-12-12T20:55:11.903Z,0.80
2023-12-12T20:57:40.578Z,0.80
2023-12-12T21:00:11.790Z,0.90
2023-12-12T21:02:41.929Z,0.80
2023-12-12T21:05:10.973Z,0.80
2023-12-12T21:07:39.758Z,0.90
2023-12-12T21:10:08.920Z,0.80
2023-12-12T21:12:37.278Z,0.80
2023-12-12T21:15:07.123Z,0.80
2023-12-12T21:17:36.150Z,0.80
2023-12-12T21:20:07.932Z,0.80
2023-12-12T21:22:36.757Z,0.80
2023-12-12T21:25:06.824Z,0.80
2023-12-12T21:27:35.638Z,0.80
2023-12-12T21:30:04.906Z,0.80
2023-12-12T21:32:33.471Z,0.80
2023-12-12T21:35:02.398Z,0.80
2023-12-12T21:37:33.166Z,0.80
2023-12-12T21:40:04.971Z,0.80
2023-12-12T21:42:34.691Z,0.80
2023-12-12T21:45:04.753Z,0.80
2023-12-12T21:47:33.365Z,0.90
2023-12-12T21:50:02.153Z,0.80
2023-12-12T21:52:34.217Z,0.80
2023-12-12T21:55:03.384Z,0.80
2023-12-12T21:57:31.859Z,0.80
2023-12-12T22:00:00.417Z,0.70
2023-12-12T22:02:29.176Z,0.80
2023-12-12T22:04:57.650Z,0.80
2023-12-12T22:07:26.167Z,0.80
2023-12-12T22:09:55.884Z,0.87
2023-12-12T22:12:24.357Z,0.70
2023-12-12T22:14:52.847Z,0.80
2023-12-12T22:17:22.943Z,0.80
2023-12-12T22:20:01.692Z,0.80
2023-12-12T22:22:34.815Z,0.87
2023-12-12T22:25:05.234Z,0.80
2023-12-12T22:27:33.990Z,0.80
2023-12-12T22:30:02.738Z,0.80
2023-12-12T22:32:31.155Z,0.90
2023-12-12T22:34:59.757Z,0.80
2023-12-12T22:37:28.572Z,0.80
2023-12-12T22:39:57.238Z,0.80
2023-12-12T22:42:28.051Z,0.80
2023-12-12T22:44:56.920Z,0.80
2023-12-12T22:47:25.350Z,0.80
2023-12-12T22:49:54.058Z,0.77
2023-12-12T22:52:22.580Z,0.80
2023-12-12T22:54:50.950Z,0.80
2023-12-12T22:57:20.022Z,0.77
2023-12-12T22:59:49.760Z,0.80
2023-12-12T23:02:18.627Z,0.80
2023-12-12T23:04:46.084Z,0.80
2023-12-12T23:07:14.694Z,0.80
2023-12-12T23:09:44.176Z,0.80
2023-12-12T23:12:12.658Z,0.80
2023-12-12T23:14:41.180Z,0.80
2023-12-12T23:17:11.444Z,0.80
2023-12-12T23:19:39.854Z,0.70
2023-12-12T23:22:08.282Z,0.80
2023-12-12T23:24:36.977Z,0.80
2023-12-12T23:27:05.844Z,0.80
2023-12-12T23:29:34.341Z,0.80
2023-12-12T23:32:03.946Z,0.80
2023-12-12T23:34:33.692Z,0.80
2023-12-12T23:37:02.146Z,0.80
2023-12-12T23:39:30.579Z,0.77
2023-12-12T23:42:00.415Z,0.80
2023-12-12T23:44:28.852Z,0.80
2023-12-12T23:46:57.272Z,0.80
2023-12-12T23:49:25.757Z,0.80
2023-12-12T23:51:55.489Z,0.87
2023-12-12T23:54:24.222Z,0.83
2023-12-12T23:56:52.659Z,0.80
2023-12-12T23:59:21.240Z,0.80
